createdAt,value
2017-09-06T00:00:22.168Z,17.04
2017-09-06T00:01:02.747Z,17.01
2017-09-06T00:01:43.336Z,17
2017-09-06T00:02:23.916Z,16.94
2017-09-06T00:03:04.493Z,16.96
2017-09-06T00:03:45.079Z,17.03
2017-09-06T00:04:25.651Z,16.97
2017-09-06T00:05:06.228Z,17.01
2017-09-06T00:05:46.810Z,16.98
2017-09-06T00:06:27.400Z,17.01
2017-09-06T00:07:07.974Z,16.93
2017-09-06T00:07:48.558Z,16.94
2017-09-06T00:08:29.143Z,17
2017-09-06T00:09:09.725Z,17.07
2017-09-06T00:09:50.295Z,17.03
2017-09-06T00:10:30.874Z,17.06
2017-09-06T00:11:11.481Z,17.07
2017-09-06T00:11:52.059Z,17.04
2017-09-06T00:12:32.635Z,17.03
2017-09-06T00:13:13.205Z,17.03
2017-09-06T00:13:53.792Z,16.98
2017-09-06T00:14:34.367Z,17.03
2017-09-06T00:15:14.948Z,17
2017-09-06T00:15:55.538Z,17.08
2017-09-06T00:16:36.112Z,17.04
2017-09-06T00:17:16.695Z,17.08
2017-09-06T00:17:57.296Z,17.07
2017-09-06T00:18:37.868Z,17.08
2017-09-06T00:19:18.455Z,17.06
2017-09-06T00:19:59.036Z,17.03
2017-09-06T00:20:39.623Z,17.08
2017-09-06T00:21:20.211Z,17
2017-09-06T00:22:00.790Z,17.14
2017-09-06T00:22:41.372Z,17.03
2017-09-06T00:23:21.948Z,17.07
2017-09-06T00:24:02.532Z,17.04
2017-09-06T00:24:43.112Z,17.16
2017-09-06T00:25:23.698Z,17.16
2017-09-06T00:26:04.283Z,17.12
2017-09-06T00:26:44.877Z,17.06
2017-09-06T00:27:25.446Z,17.06
2017-09-06T00:28:06.030Z,17.04
2017-09-06T00:28:46.609Z,17.01
2017-09-06T00:29:27.191Z,17.11
2017-09-06T00:30:22.748Z,17.03
2017-09-06T00:31:03.329Z,17.07
2017-09-06T00:31:43.907Z,17
2017-09-06T00:32:24.481Z,17.04
2017-09-06T00:33:05.062Z,17.03
2017-09-06T00:33:45.648Z,17.04
2017-09-06T00:34:26.231Z,16.96
2017-09-06T00:35:06.807Z,16.97
2017-09-06T00:35:47.387Z,17
2017-09-06T00:36:27.967Z,16.94
2017-09-06T00:37:08.556Z,16.96
2017-09-06T00:37:49.136Z,16.96
2017-09-06T00:38:29.719Z,16.91
2017-09-06T00:39:10.304Z,16.91
2017-09-06T00:39:50.887Z,16.91
2017-09-06T00:40:31.467Z,16.91
2017-09-06T00:41:12.048Z,16.89
2017-09-06T00:41:52.619Z,16.91
2017-09-06T00:42:33.199Z,16.86
2017-09-06T00:43:13.782Z,16.89
2017-09-06T00:43:54.372Z,16.79
2017-09-06T00:44:34.944Z,16.81
2017-09-06T00:45:15.532Z,16.79
2017-09-06T00:45:56.104Z,16.85
2017-09-06T00:46:36.679Z,16.76
2017-09-06T00:47:17.275Z,16.81
2017-09-06T00:47:57.839Z,16.78
2017-09-06T00:48:38.426Z,16.81
2017-09-06T00:49:19.003Z,16.82
2017-09-06T00:49:59.584Z,16.82
2017-09-06T00:50:40.160Z,16.81
2017-09-06T00:51:20.747Z,16.82
2017-09-06T00:52:01.321Z,16.82
2017-09-06T00:53:53.957Z,16.83
2017-09-06T00:54:34.529Z,16.79
2017-09-06T00:55:15.115Z,16.88
2017-09-06T00:56:10.328Z,16.75
2017-09-06T00:56:50.901Z,16.79
2017-09-06T00:57:31.475Z,16.82
2017-09-06T00:58:12.072Z,16.83
2017-09-06T00:58:52.635Z,16.81
2017-09-06T00:59:33.210Z,16.81
2017-09-06T01:00:13.794Z,16.75
2017-09-06T01:00:54.371Z,16.81
2017-09-06T01:01:34.940Z,16.86
2017-09-06T01:02:15.520Z,16.81
2017-09-06T01:02:56.088Z,16.83
2017-09-06T01:03:36.650Z,16.85
2017-09-06T01:04:17.246Z,16.79
2017-09-06T01:04:57.832Z,16.85
2017-09-06T01:05:38.413Z,16.83
2017-09-06T01:06:18.996Z,16.79
2017-09-06T01:06:59.567Z,16.82
2017-09-06T01:07:40.156Z,16.82
2017-09-06T01:08:20.739Z,16.85
2017-09-06T01:09:01.317Z,16.81
2017-09-06T01:09:41.894Z,16.85
2017-09-06T01:10:22.476Z,16.85
2017-09-06T01:11:03.054Z,16.82
2017-09-06T01:11:43.639Z,16.85
2017-09-06T01:12:24.194Z,16.83
2017-09-06T01:13:04.771Z,16.79
2017-09-06T01:13:45.359Z,16.82
2017-09-06T01:14:25.942Z,16.88
2017-09-06T01:15:06.524Z,16.79
2017-09-06T01:15:47.102Z,16.81
2017-09-06T01:16:27.679Z,16.82
2017-09-06T01:17:08.258Z,16.76
2017-09-06T01:17:48.835Z,16.83
2017-09-06T01:18:29.414Z,16.85
2017-09-06T01:19:09.995Z,16.83
2017-09-06T01:19:50.582Z,16.81
2017-09-06T01:20:31.155Z,16.85
2017-09-06T01:22:44.022Z,16.88
2017-09-06T01:23:24.598Z,16.81
2017-09-06T01:24:05.186Z,16.81
2017-09-06T01:24:45.776Z,16.83
2017-09-06T01:25:26.358Z,16.79
2017-09-06T01:26:06.942Z,16.76
2017-09-06T01:26:47.519Z,16.85
2017-09-06T01:28:24.905Z,16.76
2017-09-06T01:29:05.478Z,16.83
2017-09-06T01:29:46.027Z,16.81
2017-09-06T01:30:26.605Z,16.81
2017-09-06T01:31:07.170Z,16.82
2017-09-06T01:31:47.759Z,16.79
2017-09-06T01:32:28.339Z,16.83
2017-09-06T01:33:08.925Z,16.7
2017-09-06T01:33:49.499Z,16.75
2017-09-06T01:34:30.095Z,16.71
2017-09-06T01:35:10.658Z,16.71
2017-09-06T01:35:51.231Z,16.79
2017-09-06T01:36:31.820Z,16.83
2017-09-06T01:37:12.394Z,16.68
2017-09-06T01:37:52.963Z,16.79
2017-09-06T01:38:34.158Z,16.73
2017-09-06T01:39:14.743Z,16.75
2017-09-06T01:39:55.325Z,16.75
2017-09-06T01:40:35.905Z,16.7
2017-09-06T01:41:16.485Z,16.71
2017-09-06T01:41:57.071Z,16.67
2017-09-06T01:42:37.639Z,16.73
2017-09-06T01:43:18.214Z,16.76
2017-09-06T01:43:58.802Z,16.67
2017-09-06T01:44:39.366Z,16.73
2017-09-06T01:45:19.946Z,16.67
2017-09-06T01:46:00.529Z,16.67
2017-09-06T01:46:41.102Z,16.81
2017-09-06T01:47:21.679Z,16.82
2017-09-06T01:48:02.257Z,16.7
2017-09-06T01:48:42.839Z,16.78
2017-09-06T01:49:23.442Z,16.73
2017-09-06T01:50:04.009Z,16.68
2017-09-06T01:50:44.588Z,16.71
2017-09-06T01:51:25.164Z,16.76
2017-09-06T01:52:05.733Z,16.79
2017-09-06T01:52:46.315Z,16.76
2017-09-06T01:53:26.914Z,16.75
2017-09-06T01:54:07.486Z,16.76
2017-09-06T01:54:48.080Z,16.76
2017-09-06T01:55:28.658Z,16.71
2017-09-06T01:56:09.230Z,16.73
2017-09-06T01:56:49.794Z,16.79
2017-09-06T01:57:30.394Z,16.63
2017-09-06T01:58:10.973Z,16.67
2017-09-06T01:58:51.531Z,16.76
2017-09-06T01:59:32.109Z,16.67
2017-09-06T02:00:12.687Z,16.7
2017-09-06T02:00:53.253Z,16.66
2017-09-06T02:01:33.831Z,16.67
2017-09-06T02:02:14.404Z,16.73
2017-09-06T02:02:54.978Z,16.66
2017-09-06T02:03:35.555Z,16.7
2017-09-06T02:04:16.134Z,16.7
2017-09-06T02:04:56.715Z,16.68
2017-09-06T02:05:37.287Z,16.68
2017-09-06T02:06:17.854Z,16.56
2017-09-06T02:06:58.445Z,16.6
2017-09-06T02:07:39.023Z,16.58
2017-09-06T02:08:19.598Z,16.58
2017-09-06T02:09:00.178Z,16.68
2017-09-06T02:09:40.760Z,16.6
2017-09-06T02:10:21.342Z,16.6
2017-09-06T02:11:01.913Z,16.67
2017-09-06T02:11:42.494Z,16.68
2017-09-06T02:12:23.072Z,16.61
2017-09-06T02:13:03.664Z,16.67
2017-09-06T02:13:44.236Z,16.64
2017-09-06T02:14:24.816Z,16.68
2017-09-06T02:15:05.388Z,16.73
2017-09-06T02:15:45.961Z,16.73
2017-09-06T02:16:26.543Z,16.68
2017-09-06T02:17:07.130Z,16.71
2017-09-06T02:17:47.717Z,16.75
2017-09-06T02:18:28.296Z,16.61
2017-09-06T02:19:08.887Z,16.68
2017-09-06T02:19:49.470Z,16.82
2017-09-06T02:20:30.056Z,16.78
2017-09-06T02:21:10.638Z,16.81
2017-09-06T02:21:51.225Z,16.81
2017-09-06T02:22:31.811Z,16.81
2017-09-06T02:23:12.395Z,16.85
2017-09-06T02:23:52.980Z,16.85
2017-09-06T02:24:33.565Z,16.88
2017-09-06T02:25:14.142Z,16.89
2017-09-06T02:25:54.713Z,16.89
2017-09-06T02:26:35.277Z,16.89
2017-09-06T02:27:15.851Z,16.94
2017-09-06T02:27:56.438Z,16.97
2017-09-06T02:28:37.021Z,16.96
2017-09-06T02:29:17.625Z,16.91
2017-09-06T02:29:58.156Z,16.91
2017-09-06T02:30:38.738Z,16.93
2017-09-06T02:31:19.285Z,16.94
2017-09-06T02:31:59.863Z,16.98
2017-09-06T02:32:40.433Z,17.07
2017-09-06T02:33:21.000Z,17.04
2017-09-06T02:34:01.576Z,17
2017-09-06T02:34:42.160Z,17.08
2017-09-06T02:35:23.290Z,17.07
2017-09-06T02:36:03.879Z,17.06
2017-09-06T02:36:44.446Z,17.04
2017-09-06T02:37:25.038Z,17
2017-09-06T02:38:05.614Z,17.01
2017-09-06T02:38:46.168Z,17.08
2017-09-06T02:39:26.746Z,17.08
2017-09-06T02:40:07.306Z,17.08
2017-09-06T02:40:47.870Z,17.04
2017-09-06T02:41:28.446Z,17.07
2017-09-06T02:42:09.016Z,17.18
2017-09-06T02:42:49.587Z,17.11
2017-09-06T02:43:30.154Z,17.15
2017-09-06T02:44:10.745Z,17.14
2017-09-06T02:44:51.330Z,17.12
2017-09-06T02:45:31.905Z,17.15
2017-09-06T02:46:12.479Z,17.11
2017-09-06T02:46:53.043Z,17.14
2017-09-06T02:47:33.629Z,17.14
2017-09-06T02:48:14.206Z,17.19
2017-09-06T02:48:54.779Z,17.14
2017-09-06T02:49:35.382Z,17.16
2017-09-06T02:50:15.973Z,17.25
2017-09-06T02:50:56.554Z,17.21
2017-09-06T02:51:37.141Z,17.25
2017-09-06T02:52:17.713Z,17.31
2017-09-06T02:52:58.300Z,17.26
2017-09-06T02:53:38.893Z,17.22
2017-09-06T02:54:19.487Z,17.22
2017-09-06T02:55:00.065Z,17.19
2017-09-06T02:55:40.655Z,17.3
2017-09-06T02:56:21.219Z,17.33
2017-09-06T02:57:01.819Z,17.28
2017-09-06T02:57:44.015Z,17.26
2017-09-06T02:58:24.591Z,17.31
2017-09-06T02:59:05.192Z,17.33
2017-09-06T02:59:45.814Z,17.25
2017-09-06T03:00:26.381Z,17.33
2017-09-06T03:01:06.967Z,17.21
2017-09-06T03:01:47.531Z,17.22
2017-09-06T03:02:28.113Z,17.15
2017-09-06T03:03:08.696Z,17.14
2017-09-06T03:03:49.282Z,17.14
2017-09-06T03:04:29.880Z,17.14
2017-09-06T03:05:11.392Z,17.14
2017-09-06T03:05:51.981Z,17.15
2017-09-06T03:06:32.570Z,17.15
2017-09-06T03:07:13.144Z,17.16
2017-09-06T03:07:53.726Z,17.16
2017-09-06T03:08:34.308Z,17.16
2017-09-06T03:09:14.890Z,17.19
2017-09-06T03:09:55.464Z,17.23
2017-09-06T03:10:36.055Z,17.21
2017-09-06T03:11:16.635Z,17.19
2017-09-06T03:11:57.227Z,17.21
2017-09-06T03:12:37.839Z,17.22
2017-09-06T03:13:18.407Z,17.34
2017-09-06T03:13:58.978Z,17.36
2017-09-06T03:14:39.560Z,17.31
2017-09-06T03:15:20.278Z,17.31
2017-09-06T03:16:00.856Z,17.36
2017-09-06T03:16:41.427Z,17.3
2017-09-06T03:17:22.180Z,17.26
2017-09-06T03:18:02.945Z,17.3
2017-09-06T03:18:43.576Z,17.37
2017-09-06T03:19:24.183Z,17.4
2017-09-06T03:20:04.771Z,17.31
2017-09-06T03:20:45.390Z,17.36
2017-09-06T03:21:26.986Z,17.33
2017-09-06T03:22:07.606Z,17.34
2017-09-06T03:22:48.754Z,17.31
2017-09-06T03:23:40.488Z,17.31
2017-09-06T03:24:21.290Z,17.28
2017-09-06T03:25:02.104Z,17.3
2017-09-06T03:25:42.774Z,17.37
2017-09-06T03:26:23.455Z,17.36
2017-09-06T03:27:04.016Z,17.34
2017-09-06T03:27:44.706Z,17.37
2017-09-06T03:28:25.420Z,17.44
2017-09-06T03:29:06.046Z,17.4
2017-09-06T03:29:46.622Z,17.37
2017-09-06T03:30:27.194Z,17.41
2017-09-06T03:31:07.885Z,17.41
2017-09-06T03:31:48.562Z,17.4
2017-09-06T03:32:29.164Z,17.38
2017-09-06T03:33:09.767Z,17.41
2017-09-06T03:33:50.371Z,17.38
2017-09-06T03:34:30.951Z,17.4
2017-09-06T03:35:11.591Z,17.46
2017-09-06T03:35:52.182Z,17.41
2017-09-06T03:36:32.762Z,17.43
2017-09-06T03:37:13.336Z,17.43
2017-09-06T03:37:53.926Z,17.51
2017-09-06T03:38:34.506Z,17.48
2017-09-06T03:39:15.222Z,17.4
2017-09-06T03:39:55.942Z,17.43
2017-09-06T03:40:36.554Z,17.44
2017-09-06T03:41:17.172Z,17.46
2017-09-06T03:41:57.842Z,17.36
2017-09-06T03:42:38.650Z,17.33
2017-09-06T03:43:19.367Z,17.38
2017-09-06T03:43:59.969Z,17.37
2017-09-06T03:44:40.657Z,17.37
2017-09-06T03:45:21.286Z,17.34
2017-09-06T03:46:01.873Z,17.38
2017-09-06T03:46:42.591Z,17.43
2017-09-06T03:47:23.288Z,17.33
2017-09-06T03:48:03.871Z,17.38
2017-09-06T03:48:44.491Z,17.49
2017-09-06T03:49:25.127Z,17.48
2017-09-06T03:50:06.407Z,17.38
2017-09-06T03:50:46.979Z,17.38
2017-09-06T03:51:27.591Z,17.4
2017-09-06T03:52:08.172Z,17.43
2017-09-06T03:52:48.750Z,17.54
2017-09-06T03:53:29.322Z,17.41
2017-09-06T03:54:09.907Z,17.51
2017-09-06T03:54:50.515Z,17.51
2017-09-06T03:55:31.072Z,17.52
2017-09-06T03:56:11.660Z,17.56
2017-09-06T03:58:24.517Z,17.52
2017-09-06T03:59:05.099Z,17.49
2017-09-06T03:59:45.681Z,17.56
2017-09-06T04:00:26.258Z,17.49
2017-09-06T04:01:06.829Z,17.51
2017-09-06T04:01:47.411Z,17.55
2017-09-06T04:02:27.994Z,17.62
2017-09-06T04:03:08.575Z,17.54
2017-09-06T04:03:49.156Z,17.54
2017-09-06T04:04:29.739Z,17.59
2017-09-06T04:05:10.311Z,17.58
2017-09-06T04:05:50.896Z,17.51
2017-09-06T04:06:31.472Z,17.54
2017-09-06T04:07:12.044Z,17.58
2017-09-06T04:07:52.630Z,17.56
2017-09-06T04:08:33.195Z,17.59
2017-09-06T04:09:13.771Z,17.54
2017-09-06T04:09:54.352Z,17.56
2017-09-06T04:10:34.936Z,17.62
2017-09-06T04:11:15.513Z,17.58
2017-09-06T04:11:56.095Z,17.56
2017-09-06T04:12:36.674Z,17.54
2017-09-06T04:13:17.252Z,17.62
2017-09-06T04:13:57.835Z,17.56
2017-09-06T04:14:38.419Z,17.56
2017-09-06T04:15:19.005Z,17.64
2017-09-06T04:15:59.586Z,17.59
2017-09-06T04:16:40.176Z,17.58
2017-09-06T04:17:20.749Z,17.63
2017-09-06T04:18:01.328Z,17.58
2017-09-06T04:18:41.902Z,17.64
2017-09-06T04:19:22.491Z,17.66
2017-09-06T04:20:03.066Z,17.62
2017-09-06T04:20:43.647Z,17.63
2017-09-06T04:21:24.219Z,17.58
2017-09-06T04:22:04.810Z,17.7
2017-09-06T04:22:45.403Z,17.63
2017-09-06T04:23:25.998Z,17.63
2017-09-06T04:24:06.570Z,17.56
2017-09-06T04:24:47.148Z,17.63
2017-09-06T04:25:27.732Z,17.63
2017-09-06T04:26:08.320Z,17.59
2017-09-06T04:26:48.900Z,17.62
2017-09-06T04:27:29.480Z,17.58
2017-09-06T04:28:10.056Z,17.54
2017-09-06T04:28:50.633Z,17.55
2017-09-06T04:29:31.215Z,17.56
2017-09-06T04:30:11.788Z,17.49
2017-09-06T04:30:52.391Z,17.56
2017-09-06T04:31:32.966Z,17.44
2017-09-06T04:32:13.531Z,17.46
2017-09-06T04:32:54.116Z,17.54
2017-09-06T04:33:34.691Z,17.49
2017-09-06T04:34:15.267Z,17.48
2017-09-06T04:34:55.858Z,17.49
2017-09-06T04:35:36.442Z,17.4
2017-09-06T04:36:17.785Z,17.37
2017-09-06T04:36:58.367Z,17.43
2017-09-06T04:37:38.952Z,17.4
2017-09-06T04:38:19.531Z,17.4
2017-09-06T04:39:00.146Z,17.52
2017-09-06T04:39:40.734Z,17.44
2017-09-06T04:40:21.316Z,17.49
2017-09-06T04:41:02.893Z,17.54
2017-09-06T04:41:43.480Z,17.46
2017-09-06T04:42:24.054Z,17.51
2017-09-06T04:43:04.638Z,17.55
2017-09-06T04:43:45.216Z,17.54
2017-09-06T04:44:25.802Z,17.58
2017-09-06T04:45:06.390Z,17.54
2017-09-06T04:45:46.964Z,17.54
2017-09-06T04:46:27.549Z,17.54
2017-09-06T04:47:08.140Z,17.52
2017-09-06T04:47:48.726Z,17.51
2017-09-06T04:48:29.304Z,17.55
2017-09-06T04:49:09.889Z,17.52
2017-09-06T04:49:50.475Z,17.58
2017-09-06T04:50:31.058Z,17.55
2017-09-06T04:51:11.637Z,17.55
2017-09-06T04:51:52.211Z,17.59
2017-09-06T04:52:32.783Z,17.54
2017-09-06T04:53:13.358Z,17.54
2017-09-06T04:53:53.951Z,17.49
2017-09-06T04:54:34.526Z,17.54
2017-09-06T04:55:15.108Z,17.4
2017-09-06T04:55:55.702Z,17.4
2017-09-06T04:56:36.279Z,17.46
2017-09-06T04:57:16.858Z,17.43
2017-09-06T04:57:57.439Z,17.44
2017-09-06T04:58:39.010Z,17.44
2017-09-06T04:59:19.595Z,17.44
2017-09-06T05:00:00.175Z,17.46
2017-09-06T05:00:40.750Z,17.48
2017-09-06T05:01:21.354Z,17.43
2017-09-06T05:02:01.920Z,17.48
2017-09-06T05:02:42.501Z,17.49
2017-09-06T05:03:23.067Z,17.49
2017-09-06T05:04:03.645Z,17.44
2017-09-06T05:04:44.230Z,17.54
2017-09-06T05:05:24.817Z,17.54
2017-09-06T05:06:05.400Z,17.54
2017-09-06T05:06:45.977Z,17.56
2017-09-06T05:07:26.551Z,17.58
2017-09-06T05:08:07.127Z,17.62
2017-09-06T05:08:47.699Z,17.59
2017-09-06T05:09:28.276Z,17.71
2017-09-06T05:10:08.858Z,17.63
2017-09-06T05:10:50.295Z,17.71
2017-09-06T05:11:30.862Z,17.68
2017-09-06T05:12:11.418Z,17.75
2017-09-06T05:12:51.987Z,17.71
2017-09-06T05:13:32.577Z,17.7
2017-09-06T05:14:27.752Z,17.72
2017-09-06T05:15:08.334Z,17.72
2017-09-06T05:15:48.913Z,17.75
2017-09-06T05:16:29.499Z,17.66
2017-09-06T05:17:10.063Z,17.72
2017-09-06T05:17:50.656Z,17.74
2017-09-06T05:18:31.242Z,17.71
2017-09-06T05:19:11.829Z,17.75
2017-09-06T05:19:52.415Z,17.62
2017-09-06T05:20:32.994Z,17.74
2017-09-06T05:21:13.583Z,17.59
2017-09-06T05:21:54.162Z,17.68
2017-09-06T05:22:34.760Z,17.66
2017-09-06T05:23:15.335Z,17.58
2017-09-06T05:23:55.928Z,17.59
2017-09-06T05:24:36.510Z,17.71
2017-09-06T05:25:17.096Z,17.58
2017-09-06T05:25:57.686Z,17.75
2017-09-06T05:26:53.264Z,17.72
2017-09-06T05:27:33.845Z,17.71
2017-09-06T05:28:14.429Z,17.72
2017-09-06T05:28:55.002Z,17.74
2017-09-06T05:29:35.574Z,17.62
2017-09-06T05:30:16.163Z,17.78
2017-09-06T05:30:56.742Z,17.78
2017-09-06T05:31:37.323Z,17.78
2017-09-06T05:32:17.912Z,17.79
2017-09-06T05:32:58.488Z,17.78
2017-09-06T05:33:39.075Z,17.78
2017-09-06T05:34:19.659Z,17.79
2017-09-06T05:35:00.238Z,17.86
2017-09-06T05:35:40.849Z,17.86
2017-09-06T05:36:21.405Z,17.79
2017-09-06T05:37:01.981Z,17.86
2017-09-06T05:37:42.565Z,17.86
2017-09-06T05:38:23.150Z,17.97
2017-09-06T05:39:03.720Z,18.05
2017-09-06T05:39:44.285Z,18.02
2017-09-06T05:40:24.901Z,18.03
2017-09-06T05:41:05.462Z,18.02
2017-09-06T05:41:46.042Z,18
2017-09-06T05:42:26.622Z,18.03
2017-09-06T05:43:07.198Z,18.07
2017-09-06T05:43:47.780Z,18.14
2017-09-06T05:44:28.362Z,18.2
2017-09-06T05:45:08.937Z,18.29
2017-09-06T05:45:49.516Z,18.41
2017-09-06T05:46:30.095Z,18.51
2017-09-06T05:47:10.672Z,18.55
2017-09-06T05:47:51.255Z,18.7
2017-09-06T05:48:31.837Z,18.81
2017-09-06T05:49:12.419Z,18.94
2017-09-06T05:49:52.997Z,18.98
2017-09-06T05:50:33.583Z,19.11
2017-09-06T05:51:14.160Z,19.16
2017-09-06T05:51:54.736Z,19.22
2017-09-06T05:52:35.325Z,19.31
2017-09-06T05:53:15.905Z,19.18
2017-09-06T05:53:56.487Z,19.16
2017-09-06T05:54:37.066Z,19.14
2017-09-06T05:55:17.650Z,19.22
2017-09-06T05:55:58.231Z,19.26
2017-09-06T05:56:38.803Z,19.29
2017-09-06T05:57:19.388Z,19.31
2017-09-06T05:57:59.973Z,19.4
2017-09-06T05:58:40.555Z,19.4
2017-09-06T05:59:21.138Z,19.44
2017-09-06T06:00:01.732Z,19.54
2017-09-06T06:00:42.306Z,19.44
2017-09-06T06:01:22.893Z,19.43
2017-09-06T06:02:03.478Z,19.26
2017-09-06T06:02:44.053Z,19.37
2017-09-06T06:03:24.639Z,19.39
2017-09-06T06:04:05.224Z,19.46
2017-09-06T06:04:45.802Z,19.51
2017-09-06T06:05:26.379Z,19.5
2017-09-06T06:06:06.960Z,19.69
2017-09-06T06:06:47.546Z,19.95
2017-09-06T06:07:28.128Z,19.88
2017-09-06T06:08:08.710Z,20.13
2017-09-06T06:09:46.096Z,20.17
2017-09-06T06:10:26.675Z,20.23
2017-09-06T06:11:07.259Z,20.29
2017-09-06T06:11:47.854Z,20.35
2017-09-06T06:12:28.430Z,20.36
2017-09-06T06:13:09.013Z,20.35
2017-09-06T06:13:49.600Z,20.26
2017-09-06T06:14:30.177Z,20.14
2017-09-06T06:15:10.758Z,20.16
2017-09-06T06:15:51.335Z,20.17
2017-09-06T06:16:31.916Z,20.17
2017-09-06T06:17:12.494Z,20.21
2017-09-06T06:17:53.075Z,20.18
2017-09-06T06:18:33.656Z,20.26
2017-09-06T06:19:14.240Z,20.43
2017-09-06T06:19:54.826Z,20.58
2017-09-06T06:20:35.412Z,20.74
2017-09-06T06:21:15.992Z,21.06
2017-09-06T06:21:56.566Z,21.59
2017-09-06T06:22:37.153Z,21.77
2017-09-06T06:23:17.739Z,21.67
2017-09-06T06:23:58.315Z,21.67
2017-09-06T06:24:38.906Z,21.75
2017-09-06T06:25:19.496Z,21.83
2017-09-06T06:26:00.076Z,21.94
2017-09-06T06:26:40.662Z,22.24
2017-09-06T06:27:21.246Z,22.27
2017-09-06T06:28:01.836Z,22.1
2017-09-06T06:28:42.409Z,21.92
2017-09-06T06:29:23.007Z,21.68
2017-09-06T06:30:03.601Z,21.5
2017-09-06T06:30:44.170Z,21.46
2017-09-06T06:31:24.750Z,21.32
2017-09-06T06:32:05.327Z,21.12
2017-09-06T06:32:45.995Z,21.07
2017-09-06T06:33:26.587Z,21.01
2017-09-06T06:34:07.174Z,20.97
2017-09-06T06:34:47.764Z,20.95
2017-09-06T06:35:29.171Z,20.84
2017-09-06T06:36:09.758Z,20.82
2017-09-06T06:36:50.336Z,20.69
2017-09-06T06:37:30.919Z,20.43
2017-09-06T06:38:11.503Z,20.47
2017-09-06T06:38:52.092Z,20.26
2017-09-06T06:39:32.660Z,20.13
2017-09-06T06:40:13.258Z,20.01
2017-09-06T06:40:53.847Z,19.91
2017-09-06T06:41:34.434Z,19.88
2017-09-06T06:42:15.013Z,19.78
2017-09-06T06:42:55.598Z,19.74
2017-09-06T06:43:36.179Z,19.74
2017-09-06T06:44:16.772Z,19.77
2017-09-06T06:44:57.355Z,19.66
2017-09-06T06:45:37.926Z,19.66
2017-09-06T06:46:18.510Z,19.66
2017-09-06T06:46:59.078Z,19.63
2017-09-06T06:47:39.668Z,19.51
2017-09-06T06:48:20.250Z,19.54
2017-09-06T06:49:00.834Z,19.51
2017-09-06T06:49:41.414Z,19.47
2017-09-06T06:50:21.998Z,19.51
2017-09-06T06:51:02.581Z,19.58
2017-09-06T06:51:43.168Z,19.48
2017-09-06T06:52:23.737Z,19.5
2017-09-06T06:53:04.318Z,19.37
2017-09-06T06:53:44.902Z,19.4
2017-09-06T06:54:25.477Z,19.28
2017-09-06T06:55:06.065Z,19.32
2017-09-06T06:55:46.646Z,19.25
2017-09-06T06:56:27.225Z,19.22
2017-09-06T06:57:07.816Z,19.19
2017-09-06T06:57:48.398Z,19.19
2017-09-06T06:58:28.975Z,19.16
2017-09-06T06:59:09.568Z,19.22
2017-09-06T06:59:50.152Z,19.11
2017-09-06T07:00:30.735Z,19.21
2017-09-06T07:01:11.315Z,19.14
2017-09-06T07:01:51.880Z,19.16
2017-09-06T07:02:32.471Z,19.23
2017-09-06T07:03:13.054Z,19.08
2017-09-06T07:03:53.638Z,19.11
2017-09-06T07:04:34.228Z,19.08
2017-09-06T07:05:14.803Z,19.04
2017-09-06T07:05:55.388Z,19.06
2017-09-06T07:06:35.973Z,19.06
2017-09-06T07:07:16.554Z,19.06
2017-09-06T07:07:57.138Z,18.98
2017-09-06T07:08:37.726Z,18.98
2017-09-06T07:09:18.305Z,19.02
2017-09-06T07:09:58.886Z,19
2017-09-06T07:10:39.467Z,19
2017-09-06T07:11:20.046Z,18.87
2017-09-06T07:12:00.617Z,18.84
2017-09-06T07:12:41.195Z,18.92
2017-09-06T07:13:21.779Z,18.92
2017-09-06T07:14:02.358Z,18.8
2017-09-06T07:14:42.947Z,18.81
2017-09-06T07:15:23.528Z,18.87
2017-09-06T07:16:04.105Z,18.84
2017-09-06T07:16:44.678Z,18.85
2017-09-06T07:17:25.264Z,18.75
2017-09-06T07:18:05.845Z,18.69
2017-09-06T07:19:43.237Z,18.57
2017-09-06T07:20:23.810Z,18.42
2017-09-06T07:21:04.392Z,18.47
2017-09-06T07:21:44.970Z,18.5
2017-09-06T07:22:25.553Z,18.48
2017-09-06T07:24:18.146Z,18.63
2017-09-06T07:24:58.725Z,18.62
2017-09-06T07:25:39.308Z,18.65
2017-09-06T07:26:19.894Z,18.69
2017-09-06T07:27:00.476Z,18.6
2017-09-06T07:27:41.052Z,18.7
2017-09-06T07:28:21.633Z,18.78
2017-09-06T07:29:02.207Z,18.76
2017-09-06T07:29:42.790Z,18.85
2017-09-06T07:30:23.380Z,18.99
2017-09-06T07:31:03.960Z,18.95
2017-09-06T07:31:44.547Z,19.06
2017-09-06T07:32:25.129Z,19.22
2017-09-06T07:33:05.702Z,19.43
2017-09-06T07:33:46.287Z,19.47
2017-09-06T07:34:26.870Z,19.58
2017-09-06T07:35:07.451Z,19.78
2017-09-06T07:35:48.032Z,19.77
2017-09-06T07:36:28.613Z,20.01
2017-09-06T07:37:09.227Z,20.14
2017-09-06T07:37:49.777Z,20.23
2017-09-06T07:38:44.968Z,20.57
2017-09-06T07:39:25.546Z,20.82
2017-09-06T07:40:06.127Z,21.01
2017-09-06T07:40:46.708Z,21.16
2017-09-06T07:41:27.296Z,21.13
2017-09-06T07:42:07.881Z,21.21
2017-09-06T07:42:48.467Z,21.28
2017-09-06T07:43:29.052Z,21.24
2017-09-06T07:44:09.638Z,21.21
2017-09-06T07:44:50.222Z,21.22
2017-09-06T07:45:30.809Z,21.07
2017-09-06T07:46:11.389Z,21.12
2017-09-06T07:46:51.972Z,21.29
2017-09-06T07:47:32.555Z,21.44
2017-09-06T07:48:13.137Z,21.65
2017-09-06T07:48:53.718Z,22.03
2017-09-06T07:49:34.295Z,22.39
2017-09-06T07:50:14.883Z,22.73
2017-09-06T07:50:55.464Z,23.16
2017-09-06T07:51:36.042Z,23.51
2017-09-06T07:52:16.636Z,23.57
2017-09-06T07:52:57.222Z,23.75
2017-09-06T07:53:37.799Z,23.72
2017-09-06T07:54:32.979Z,23.69
2017-09-06T07:55:13.575Z,23.51
2017-09-06T07:55:54.161Z,23.43
2017-09-06T07:56:34.745Z,23.05
2017-09-06T07:57:15.330Z,22.72
2017-09-06T07:57:55.913Z,22.47
2017-09-06T07:58:36.499Z,22.22
2017-09-06T07:59:17.080Z,22.07
2017-09-06T07:59:57.657Z,22.05
2017-09-06T08:00:38.246Z,22.05
2017-09-06T08:01:18.826Z,21.91
2017-09-06T08:01:59.415Z,21.72
2017-09-06T08:02:40.003Z,21.71
2017-09-06T08:03:20.578Z,21.61
2017-09-06T08:04:01.162Z,21.53
2017-09-06T08:04:41.750Z,21.47
2017-09-06T08:05:22.341Z,21.44
2017-09-06T08:06:02.920Z,21.32
2017-09-06T08:06:43.509Z,21.42
2017-09-06T08:07:24.104Z,21.44
2017-09-06T08:08:04.681Z,21.44
2017-09-06T08:08:45.250Z,21.49
2017-09-06T08:09:25.844Z,21.46
2017-09-06T08:10:06.431Z,21.38
2017-09-06T08:10:47.016Z,21.44
2017-09-06T08:11:30.462Z,21.53
2017-09-06T08:12:11.043Z,21.56
2017-09-06T08:12:51.620Z,21.65
2017-09-06T08:13:32.206Z,21.68
2017-09-06T08:14:12.784Z,21.74
2017-09-06T08:14:53.383Z,21.74
2017-09-06T08:15:33.964Z,21.83
2017-09-06T08:16:14.537Z,21.9
2017-09-06T08:16:55.117Z,21.96
2017-09-06T08:17:35.694Z,22.05
2017-09-06T08:18:16.277Z,22.2
2017-09-06T08:18:56.865Z,22.54
2017-09-06T08:19:37.448Z,22.75
2017-09-06T08:20:32.689Z,23.51
2017-09-06T08:21:27.842Z,25.17
2017-09-06T08:22:08.424Z,26.72
2017-09-06T08:22:49.014Z,28.27
2017-09-06T08:23:29.601Z,29.46
2017-09-06T08:24:10.179Z,30.47
2017-09-06T08:24:50.755Z,30.65
2017-09-06T08:25:31.342Z,30.24
2017-09-06T08:26:11.933Z,29.27
2017-09-06T08:26:52.517Z,28.55
2017-09-06T08:27:33.107Z,27.88
2017-09-06T08:28:13.693Z,27.96
2017-09-06T08:28:54.277Z,28.06
2017-09-06T08:29:34.853Z,28.39
2017-09-06T08:30:15.444Z,28.33
2017-09-06T08:30:56.033Z,28.51
2017-09-06T08:31:36.626Z,28.17
2017-09-06T08:32:17.215Z,28.39
2017-09-06T08:32:57.797Z,28.46
2017-09-06T08:33:38.388Z,28.3
2017-09-06T08:34:18.969Z,27.93
2017-09-06T08:34:59.559Z,27.66
2017-09-06T08:35:40.148Z,27.36
2017-09-06T08:36:20.746Z,26.8
2017-09-06T08:37:01.347Z,26.48
2017-09-06T08:37:41.928Z,26.4
2017-09-06T08:38:22.520Z,26.44
2017-09-06T08:39:03.114Z,26.35
2017-09-06T08:39:43.706Z,25.87
2017-09-06T08:40:24.296Z,25.61
2017-09-06T08:41:04.882Z,25.3
2017-09-06T08:41:45.468Z,25.06
2017-09-06T08:42:26.058Z,24.98
2017-09-06T08:43:06.624Z,24.91
2017-09-06T08:43:47.220Z,25.03
2017-09-06T08:44:27.789Z,25.08
2017-09-06T08:45:08.370Z,25.09
2017-09-06T08:45:48.965Z,25.02
2017-09-06T08:46:29.554Z,24.99
2017-09-06T08:48:22.205Z,24.88
2017-09-06T08:49:02.790Z,24.73
2017-09-06T08:49:43.382Z,24.64
2017-09-06T08:50:23.971Z,24.71
2017-09-06T08:51:04.546Z,25.02
2017-09-06T08:51:45.135Z,25.21
2017-09-06T08:52:25.719Z,25.51
2017-09-06T08:53:06.292Z,25.97
2017-09-06T08:53:46.880Z,26.09
2017-09-06T08:54:27.474Z,26.28
2017-09-06T08:55:08.065Z,26.7
2017-09-06T08:55:48.658Z,26.88
2017-09-06T08:56:29.240Z,27.24